• Join FlightAware (Why Join?)
  • Login
  • US Flag 
Rudolph Flight #1: Scheduled 
10:47PM EST


 

Airport Tracker/Info


-or-


 

Live Flight TrackerFlight Track Log ✈ SWA34 ✈ 03-May-2013 ✈ KHOU - KDAL

Flight Track Log - Related Links

Times and Time Zones

All times are in EDT time to prevent confusion due to time zone crossing. See the SWA34 flight status page for this flight to view local times or setup timezone preferences in your user account.

Time Position Orientation Groundspeed Altitude Reporting Facility
EDT Latitude Longitude Course Direction KTS MPH feet Rate Location/Type
03:46PM 29.6500 -95.2872 357° North 155 178 500  Level Houston Center
03:47PM 29.7028 -95.2906 357° North 194 223 3,600 2,760 Climbing Houston Center
03:48PM 29.7669 -95.3044 349° North 235 270 6,700 2,760 Climbing Houston Center
03:49PM 29.8383 -95.3192 350° North 238 274 9,600 2,040 Climbing Houston Center
03:50PM 29.9156 -95.3361 349° North 273 314 11,000 1,740 Climbing Houston Center
03:51PM 30.0081 -95.3567 349° North 332 382 13,300 2,400 Climbing Houston Center
03:52PM 30.1031 -95.3775 349° North 348 400 16,000 2,220 Climbing Houston Center
03:53PM 30.2000 -95.4006 348° North 351 404 18,000 1,920 Climbing Houston Center
03:54PM 30.3025 -95.4239 349° North 368 423 20,100 2,040 Climbing Houston Center
03:55PM 30.4269 -95.4519 349° North 378 435 22,300 1,800 Climbing Houston Center
03:56PM 30.5356 -95.4767 349° North 395 455 23,900 1,620 Climbing Houston Center
03:57PM 30.6469 -95.5011 349° North 406 467 25,700 1,740 Climbing Houston Center
03:58PM 30.7644 -95.5278 349° North 409 471 27,500 1,680 Climbing Houston Center
03:59PM 30.8714 -95.5506 350° North 407 468 29,200 1,680 Climbing Houston Center
04:00PM 30.9850 -95.5775 349° North 400 460 31,000 1,320 Climbing Houston Center
04:01PM 31.0911 -95.6014 349° North 389 448 32,000 480 Climbing Houston Center
04:02PM 31.2214 -95.6308 349° North 394 453 32,000  Level Houston Center
04:03PM 31.2531 -95.6369 351° North 393 452 32,000  Level Fort Worth Center
04:04PM 31.3600 -95.6667 347° North 393 452 32,000 -300 Level Fort Worth Center
04:05PM 31.4483 -95.7233 331° Northwest 374 430 31,500 -1,920 Descending Fort Worth Center
04:06PM 31.5389 -95.7828 331° Northwest 375 432 28,200 -3,300 Descending Fort Worth Center
04:07PM 31.6336 -95.8469 330° Northwest 381 438 24,900 -3,120 Descending Fort Worth Center
04:08PM 31.7328 -95.9186 328° Northwest 386 444 22,000 -2,460 Descending Fort Worth Center
04:09PM 31.8106 -95.9636 334° Northwest 364 419 20,000 -2,100 Descending Fort Worth Center
04:10PM 31.9008 -96.0283 329° Northwest 347 399 17,900 -2,100 Descending Fort Worth Center
04:11PM 31.9744 -96.0761 331° Northwest 325 374 15,900 -2,100 Descending Fort Worth Center
04:12PM 32.0522 -96.1289 330° Northwest 316 364 13,700 -2,100 Descending Fort Worth Center
04:13PM 32.1239 -96.1769 330° Northwest 302 348 11,700 -1,920 Descending Fort Worth Center
04:14PM 32.1889 -96.2203 331° Northwest 291 335 9,900 -900 Descending Fort Worth Center
04:15PM 32.2561 -96.2611 333° Northwest 274 315 10,000  Climbing Fort Worth Center
04:16PM 32.3150 -96.2950 334° Northwest 241 277 10,000 -480 Level Fort Worth Center
04:17PM 32.3717 -96.3311 332° Northwest 241 277 9,100 -900 Descending Fort Worth Center
04:18PM 32.4219 -96.3700 327° Northwest 241 277 8,200 -1,020 Descending Fort Worth Center
04:19PM 32.4747 -96.4308 316° Northwest 241 277 7,100 -1,020 Descending Fort Worth Center
04:20PM 32.5189 -96.4822 316° Northwest 241 277 6,200 -1,020 Descending Fort Worth Center
04:21PM 32.5714 -96.5408 317° Northwest 241 277 5,100 -600 Descending Fort Worth Center
04:22PM 32.6136 -96.5897 316° Northwest 241 277 5,000 -360 Descending Fort Worth Center
04:23PM 32.6661 -96.6483 317° Northwest 241 277 4,400 -840 Descending Fort Worth Center
04:24PM 32.7000 -96.7000 308° West 228 262 3,400 -1,080 Descending Dallas / Fort Worth TRACON
04:25PM 32.7500 -96.7500 320° Northwest 233 268 2,400 -900 Descending Dallas / Fort Worth TRACON
04:26PM 32.8000 -96.8000 320° Northwest 168 193 1,700 -720 Descending Dallas / Fort Worth TRACON
04:27PM 32.8167 -96.8167 320° Northwest 115 132 1,100 -720 Descending Dallas / Fort Worth TRACON